• Join FlightAware (Why Join?)
  • Login
  • US Flag 
02:56PM EDT


 

Airport Tracker/Info


-or-


 

Live Flight TrackerFlight Track Log ✈ UPS984 ✈ 29-Oct-2013 ✈ KONT - KBFI

Flight Track Log - Related Links

Times and Time Zones

All times are in EDT time to prevent confusion due to time zone crossing. See the UPS984 flight status page for this flight to view local times or setup timezone preferences in your user account.

Time Position Orientation Groundspeed Altitude Reporting Facility
EDT Latitude Longitude Course Direction KTS MPH feet Rate Location/Type
05:17AM 34.0550 -117.6110 320° Northwest 80 92  Level FlightAware
05:18AM 34.0550 -117.5810 90° East 175 201 1,500 2,400 Climbing FlightAware
05:18AM 34.0430 -117.5540 118° Southeast 194 223 2,700 1,800 Climbing FlightAware
05:19AM 34.0100 -117.5800 213° Southwest 233 268 3,900 1,920 Climbing FlightAware
05:19AM 34.0220 -117.6230 289° West 245 282 5,300 2,100 Climbing FlightAware
05:20AM 34.0330 -117.6550 293° West 266 306 6,000 1,320 Climbing FlightAware
05:21AM 34.0580 -117.7280 292° West 264 304 7,000 1,320 Climbing FlightAware
05:21AM 34.0750 -117.7770 293° West 269 310 8,000 1,980 Climbing FlightAware
05:22AM 34.0937 -117.8098 305° West 273 314 9,100 2,400 Climbing FlightAware ADS-B
05:22AM 34.1074 -117.8302 309° West 279 321 9,800 1,680 Climbing FlightAware ADS-B
05:23AM 34.1510 -117.8930 310° West 320 368 11,000 1,320 Climbing FlightAware
05:23AM 34.1820 -117.9380 310° West 355 409 11,600 1,560 Climbing FlightAware
05:24AM 34.2200 -117.9940 309° West 389 448 12,700 2,640 Climbing FlightAware
05:25AM 34.2830 -118.0750 313° West 403 464 15,400 3,180 Climbing FlightAware
05:25AM 34.3500 -118.1070 338° Northwest 415 478 17,500 2,880 Climbing FlightAware
05:26AM 34.4380 -118.1360 345° North 432 497 19,500 2,580 Climbing FlightAware
05:27AM 34.5120 -118.1610 344° North 440 506 21,100 2,160 Climbing FlightAware
05:28AM 34.6340 -118.2010 345° North 457 526 23,100 1,920 Climbing FlightAware
05:28AM 34.6890 -118.2190 345° North 465 535 24,000 1,980 Climbing FlightAware
05:29AM 34.7650 -118.2440 345° North 475 547 25,200 1,860 Climbing FlightAware
05:30AM 34.8600 -118.2760 345° North 486 559 26,500 2,040 Climbing FlightAware
05:30AM 34.9390 -118.3020 345° North 484 557 28,000 2,280 Climbing FlightAware
05:31AM 35.0240 -118.3300 345° North 482 555 29,400 2,040 Climbing FlightAware
05:32AM 35.1270 -118.3650 344° North 481 554 30,900 1,860 Climbing FlightAware
05:32AM 35.1950 -118.3870 345° North 478 550 31,900 1,560 Climbing FlightAware
05:33AM 35.2960 -118.4210 345° North 478 550 33,000 1,380 Climbing FlightAware
05:34AM 35.3900 -118.4530 344° North 477 549 34,000 660 Climbing FlightAware
05:34AM 35.4750 -118.4820 344° North 479 551 34,000  Level FlightAware
05:35AM 35.5420 -118.5040 345° North 481 554 34,000  Level FlightAware
05:36AM 35.6190 -118.5300 345° North 481 554 34,000  Level FlightAware
05:36AM 35.7060 -118.5600 344° North 479 551 34,000  Level FlightAware
05:37AM 35.7790 -118.5860 344° North 482 555 34,000  Level FlightAware
05:38AM 35.9070 -118.6300 344° North 482 555 34,000  Level FlightAware
05:39AM 36.0070 -118.6640 345° North 480 552 34,000  Level FlightAware
05:39AM 36.0900 -118.6930 344° North 479 551 34,000  Level FlightAware
05:40AM 36.2300 -118.7420 344° North 477 549 34,000  Level FlightAware
05:41AM 36.3070 -118.7690 344° North 477 549 34,000  Level FlightAware
05:41AM 36.3820 -118.7950 344° North 476 548 34,000  Level FlightAware
05:42AM 36.4690 -118.8260 344° North 475 547 34,000  Level FlightAware
05:43AM 36.5690 -118.8610 344° North 471 542 34,000  Level FlightAware
05:44AM 36.6430 -118.8870 344° North 472 543 34,000  Level FlightAware
05:44AM 36.7390 -118.9210 344° North 471 542 34,000  Level FlightAware
05:45AM 36.8020 -118.9430 344° North 471 542 34,000  Level FlightAware
05:46AM 36.9460 -118.9940 344° North 466 536 34,000  Level FlightAware
05:47AM 37.0190 -119.0210 344° North 465 535 34,000  Level FlightAware
05:47AM 37.1060 -119.0510 345° North 464 534 34,000  Level FlightAware
05:48AM 37.1870 -119.0800 344° North 464 534 34,000  Level FlightAware
05:48AM 37.2450 -119.1010 344° North 463 533 34,000  Level FlightAware
05:49AM 37.3200 -119.1280 344° North 462 532 34,000  Level FlightAware
05:50AM 37.4850 -119.1880 344° North 461 531 34,000  Level FlightAware
05:51AM 37.5670 -119.2170 344° North 461 531 34,000  Level FlightAware
05:51AM 37.6310 -119.2410 343° North 462 532 34,000  Level FlightAware
05:52AM 37.7290 -119.2760 344° North 459 528 34,000  Level FlightAware
05:53AM 37.7850 -119.2970 343° North 458 527 34,000  Level FlightAware
05:53AM 37.8760 -119.3300 344° North 456 525 34,000  Level FlightAware
05:54AM 37.9650 -119.3620 344° North 452 520 34,000  Level FlightAware
05:55AM 38.0220 -119.3830 344° North 451 519 34,000  Level FlightAware
05:55AM 38.0900 -119.4080 344° North 453 521 34,000  Level FlightAware
05:56AM 38.1290 -119.4230 343° North 452 520 34,000  Level FlightAware
05:57AM 38.2675 -119.4737 344° North 453 521 34,000  Level FlightAware ADS-B (KAHC)
05:57AM 38.3558 -119.5063 344° North 451 519 34,000  Level FlightAware ADS-B (KAHC)
05:58AM 38.4288 -119.5335 344° North 450 518 34,000  Level FlightAware ADS-B (KAHC)
05:59AM 38.5248 -119.5690 344° North 452 520 34,000  Level FlightAware ADS-B (KAHC)
05:59AM 38.5882 -119.5926 344° North 451 519 34,000  Level FlightAware ADS-B (KAHC)
06:00AM 38.6577 -119.6184 344° North 451 519 34,000  Level FlightAware ADS-B (KAHC)
06:01AM 38.7224 -119.6429 344° North 450 518 34,000  Level FlightAware ADS-B (KAHC)
06:01AM 38.7840 -119.6658 344° North 449 517 34,000  Level FlightAware ADS-B (KAHC)
06:02AM 38.8490 -119.6903 344° North 449 517 34,000  Level FlightAware ADS-B (KAHC)
06:02AM 38.9088 -119.7129 344° North 450 518 34,000  Level FlightAware ADS-B (KAHC)
06:03AM 38.9886 -119.7429 344° North 452 520 34,000  Level FlightAware ADS-B (KAHC)
06:03AM 39.0385 -119.7617 344° North 453 521 34,000  Level FlightAware ADS-B (KAHC)
06:04AM 39.1083 -119.7880 344° North 453 521 34,000  Level FlightAware ADS-B (KAHC)
06:04AM 39.1691 -119.8111 344° North 452 520 34,000  Level FlightAware ADS-B (KAHC)
06:05AM 39.2282 -119.8335 344° North 450 518 34,000  Level FlightAware ADS-B (KAHC)
06:05AM 39.3057 -119.8629 344° North 450 518 34,000  Level FlightAware ADS-B (KAHC)
06:06AM 39.3672 -119.8863 344° North 449 517 34,000  Level FlightAware ADS-B (KAHC)
06:06AM 39.4272 -119.9094 343° North 450 518 34,000  Level FlightAware ADS-B (KAHC)
06:07AM 39.4883 -119.9329 343° North 451 519 34,000  Level FlightAware ADS-B (KAHC)
06:07AM 39.5471 -119.9554 344° North 450 518 34,000  Level FlightAware ADS-B (KAHC)
06:08AM 39.6073 -119.9783 344° North 449 517 34,000  Level FlightAware ADS-B (KAHC)
06:08AM 39.6671 -120.0013 344° North 447 514 34,000  Level FlightAware ADS-B (KAHC)
06:09AM 39.7268 -120.0243 343° North 446 513 34,000  Level FlightAware ADS-B (KAHC)
06:09AM 39.7860 -120.0474 343° North 445 512 34,000  Level FlightAware ADS-B (KAHC)
06:10AM 39.8450 -120.0701 344° North 444 511 34,000  Level FlightAware ADS-B (KAHC)
06:10AM 39.9045 -120.0935 343° North 443 510 34,000  Level FlightAware ADS-B (KAHC)
06:11AM 39.9636 -120.1161 344° North 443 510 34,000  Level FlightAware ADS-B (KAHC)
06:11AM 40.0218 -120.1387 343° North 442 509 34,000  Level FlightAware ADS-B (KAHC)
06:12AM 40.0803 -120.1616 343° North 441 507 34,000  Level FlightAware ADS-B (KAHC)
06:12AM 40.1391 -120.1844 343° North 441 507 34,000  Level FlightAware ADS-B (KAHC)
06:13AM 40.1972 -120.2072 343° North 440 506 34,000  Level FlightAware ADS-B (KAHC)
06:13AM 40.2563 -120.2302 343° North 439 505 34,000  Level FlightAware ADS-B (KAHC)
06:14AM 40.3128 -120.2524 343° North 439 505 34,000  Level FlightAware ADS-B (KAHC)
06:14AM 40.3732 -120.2763 343° North 440 506 34,000  Level FlightAware ADS-B (KAHC)
06:15AM 40.4302 -120.2984 344° North 440 506 34,000  Level FlightAware ADS-B (KAHC)
06:15AM 40.4890 -120.3217 343° North 441 507 34,000  Level FlightAware ADS-B (KAHC)
06:16AM 40.5479 -120.3450 343° North 442 509 34,000  Level FlightAware ADS-B (KAHC)
06:16AM 40.6023 -120.3665 343° North 443 510 34,000  Level FlightAware ADS-B (KAHC)
06:17AM 40.6656 -120.3917 343° North 445 512 34,000  Level FlightAware ADS-B (KAHC)
06:17AM 40.7249 -120.4156 343° North 444 511 34,000  Level FlightAware ADS-B (KAHC)
06:18AM 40.7835 -120.4387 343° North 443 510 34,000  Level FlightAware ADS-B (KAHC)
06:18AM 40.8420 -120.4620 343° North 442 509 34,000  Level FlightAware ADS-B (KAHC)
06:19AM 40.9010 -120.4854 343° North 441 507 34,000  Level FlightAware ADS-B (KAHC)
06:19AM 40.9587 -120.5087 343° North 441 507 34,000  Level FlightAware ADS-B (KAHC)
06:20AM 41.0133 -120.5314 343° North 437 503 34,000  Level Oakland Center
06:21AM 41.1567 -120.5881 343° North 440 506 34,000  Level Seattle Center
06:22AM 41.2733 -120.6358 343° North 439 505 34,000  Level Seattle Center
06:23AM 41.3897 -120.6825 343° North 439 505 34,000  Level Seattle Center
06:24AM 41.5064 -120.7300 343° North 439 505 34,000  Level Seattle Center
06:25AM 41.6222 -120.7775 343° North 437 503 34,000  Level Seattle Center
06:26AM 41.7375 -120.8250 343° North 435 501 34,000  Level Seattle Center
06:27AM 41.8522 -120.8719 343° North 434 499 34,000  Level Seattle Center
06:28AM 41.9669 -120.9192 343° North 433 498 34,000  Level Seattle Center
06:29AM 42.0814 -120.9669 343° North 433 498 34,000  Level Seattle Center
06:30AM 42.1956 -121.0142 343° North 432 497 34,000  Level Seattle Center
06:31AM 42.3094 -121.0622 343° North 431 496 34,000  Level Seattle Center
06:32AM 42.4233 -121.1094 343° North 430 495 34,000  Level Seattle Center
06:33AM 42.5369 -121.1578 343° North 429 494 34,000  Level Seattle Center
06:34AM 42.6503 -121.2056 343° North 429 494 34,000  Level Seattle Center
06:35AM 42.7633 -121.2533 343° North 428 493 34,000  Level Seattle Center
06:40AM 43.3700 -121.5140 343° North 417 480 34,000  Level FlightAware
06:41AM 43.4500 -121.5500 342° North 417 480 34,000  Level FlightAware
06:41AM 43.4810 -121.5620 344° North 410 472 34,000  Level FlightAware
06:42AM 43.5760 -121.6050 342° North 410 472 34,000  Level FlightAware
06:43AM 43.6520 -121.6370 343° North 407 468 34,000  Level FlightAware
06:44AM 43.7360 -121.6740 342° North 406 467 34,000  Level FlightAware
06:44AM 43.8000 -121.7020 342° North 404 465 34,000  Level FlightAware
06:45AM 43.8790 -121.7370 342° North 403 464 34,000 -420 Level FlightAware
06:45AM 43.9140 -121.7520 343° North 406 467 33,600 -360 Descending FlightAware
06:46AM 43.9880 -121.7860 342° North 406 467 33,600  Level FlightAware
06:47AM 44.0430 -121.8110 342° North 406 467 33,600 -2,520 Level FlightAware
06:48AM 44.1410 -121.8530 343° North 423 487 30,500 -3,060 Descending FlightAware
06:48AM 44.2020 -121.8800 342° North 431 496 30,000 -540 Descending FlightAware
06:49AM 44.2570 -121.9050 342° North 435 501 30,000  Level FlightAware
06:49AM 44.3220 -121.9340 342° North 431 496 30,000  Level FlightAware
06:50AM 44.4200 -121.9780 342° North 427 491 30,000  Level FlightAware
06:51AM 44.4820 -122.0060 342° North 428 493 30,000  Level FlightAware
06:51AM 44.5480 -122.0360 342° North 429 494 30,000  Level FlightAware
06:52AM 44.6270 -122.0720 342° North 427 491 30,000  Level FlightAware
06:53AM 44.7210 -122.1150 342° North 423 487 30,000  Level FlightAware
06:54AM 44.8643 -122.1800 342° North 422 486 30,000  Level FlightAware ADS-B
06:54AM 44.9217 -122.2060 342° North 424 488 30,000  Level FlightAware ADS-B
06:55AM 44.9792 -122.2330 342° North 425 489 30,000  Level FlightAware ADS-B
06:55AM 45.0356 -122.2590 342° North 426 490 30,000  Level FlightAware ADS-B
06:56AM 45.0931 -122.2850 342° North 428 493 30,000  Level FlightAware ADS-B
06:56AM 45.1507 -122.3120 342° North 429 494 30,000  Level FlightAware ADS-B
06:57AM 45.2091 -122.3390 342° North 431 496 30,000  Level FlightAware ADS-B
06:58AM 45.2662 -122.3650 342° North 433 498 30,000  Level FlightAware ADS-B
06:58AM 45.3247 -122.3930 341° North 434 499 30,000  Level FlightAware ADS-B
06:59AM 45.3825 -122.4200 342° North 434 499 30,000  Level FlightAware ADS-B
06:59AM 45.4457 -122.4490 342° North 435 501 30,000  Level FlightAware ADS-B
06:59AM 45.4902 -122.4680 343° North 432 497 30,000  Level FlightAware ADS-B
07:00AM 45.5135 -122.4750 348° North 430 495 30,000  Level FlightAware ADS-B
07:00AM 45.5491 -122.4830 351° North 427 491 30,000  Level FlightAware ADS-B
07:00AM 45.5655 -122.4860 353° North 426 490 30,000  Level FlightAware ADS-B
07:01AM 45.6250 -122.4900 357° North 425 489 30,000  Level FlightAware ADS-B
07:01AM 45.6849 -122.4930 358° North 426 490 30,000  Level FlightAware ADS-B
07:02AM 45.7451 -122.4960 358° North 427 491 30,000  Level FlightAware ADS-B
07:02AM 45.8050 -122.4990 358° North 428 493 30,000  Level FlightAware ADS-B
07:03AM 45.8648 -122.5020 358° North 429 494 30,000  Level FlightAware ADS-B
07:03AM 45.9248 -122.5060 357° North 430 495 30,000  Level FlightAware ADS-B
07:04AM 45.9844 -122.5090 358° North 431 496 30,000  Level FlightAware ADS-B
07:04AM 46.0444 -122.5130 357° North 431 496 30,000  Level FlightAware ADS-B
07:05AM 46.1044 -122.5160 358° North 433 498 30,000  Level FlightAware ADS-B
07:05AM 46.1646 -122.5190 358° North 434 499 30,000  Level FlightAware ADS-B
07:06AM 46.2252 -122.5230 357° North 435 501 30,000  Level FlightAware ADS-B
07:06AM 46.2860 -122.5260 358° North 437 503 30,000 -120 Level FlightAware ADS-B
07:07AM 46.3469 -122.5300 357° North 440 506 29,900 -1,260 Descending FlightAware ADS-B
07:07AM 46.4123 -122.5330 358° North 437 503 28,700 -2,700 Descending FlightAware ADS-B
07:08AM 46.5150 -122.5390 358° North 435 501 26,000 -3,060 Descending FlightAware
07:09AM 46.6130 -122.5450 358° North 429 494 23,600 -3,120 Descending FlightAware
07:09AM 46.6600 -122.5480 357° North 424 488 22,400 -3,000 Descending FlightAware
07:10AM 46.7770 -122.5550 358° North 403 464 19,400 -1,980 Descending FlightAware
07:11AM 46.8400 -122.5580 358° North 402 463 19,100 -3,300 Descending FlightAware
07:12AM 46.9480 -122.5650 357° North 389 448 14,000 -4,140 Descending FlightAware
07:13AM 47.0621 -122.5500 North 346 398 11,000 -2,880 Descending FlightAware ADS-B
07:13AM 47.0695 -122.5440 29° Northeast 340 391 10,800 -2,040 Descending FlightAware ADS-B
07:13AM 47.0747 -122.5380 38° Northeast 336 387 10,700 -1,800 Descending FlightAware ADS-B
07:14AM 47.1016 -122.5070 38° Northeast 311 358 10,000 -1,260 Descending FlightAware ADS-B
07:14AM 47.1177 -122.4870 40° Northeast 286 329 9,900 -420 Descending FlightAware ADS-B
07:14AM 47.1327 -122.4700 38° Northeast 268 308 9,800 -1,380 Descending FlightAware ADS-B
07:14AM 47.1476 -122.4520 39° Northeast 263 303 9,200 -2,520 Descending FlightAware ADS-B
07:15AM 47.1622 -122.4340 40° Northeast 262 302 8,500 -2,760 Descending FlightAware ADS-B
07:15AM 47.1763 -122.4160 41° Northeast 264 304 7,800 -2,340 Descending FlightAware ADS-B
07:15AM 47.1905 -122.3990 39° Northeast 263 303 7,300 -2,040 Descending FlightAware ADS-B
07:15AM 47.2053 -122.3820 38° Northeast 261 300 6,800 -1,800 Descending FlightAware ADS-B
07:16AM 47.2194 -122.3660 38° Northeast 261 300 6,400 -1,800 Descending FlightAware ADS-B
07:16AM 47.2336 -122.3480 41° Northeast 262 302 5,900 -1,800 Descending FlightAware ADS-B
07:16AM 47.2474 -122.3320 38° Northeast 261 300 5,500 -1,620 Descending FlightAware ADS-B
07:16AM 47.2614 -122.3150 39° Northeast 258 297 5,100 -1,680 Descending FlightAware ADS-B
07:16AM 47.2705 -122.3040 39° Northeast 257 296 4,800 -1,860 Descending FlightAware ADS-B
07:17AM 47.2848 -122.2870 39° Northeast 255 293 4,300 -2,100 Descending FlightAware ADS-B
07:17AM 47.2977 -122.2720 38° Northeast 257 296 3,800 -1,740 Descending FlightAware ADS-B
07:17AM 47.3117 -122.2560 38° Northeast 254 292 3,500 -1,080 Descending FlightAware ADS-B
07:17AM 47.3237 -122.2430 36° Northeast 247 284 3,300 -840 Descending FlightAware ADS-B
07:18AM 47.3372 -122.2280 37° Northeast 240 276 3,100 -780 Descending FlightAware ADS-B
07:18AM 47.3504 -122.2130 38° Northeast 236 272 2,900 -1,020 Descending FlightAware ADS-B
07:18AM 47.3535 -122.2100 33° Northeast 235 270 2,800 -1,740 Descending FlightAware ADS-B
07:18AM 47.3568 -122.2070 32° Northeast 236 272 2,700 -900 Descending FlightAware ADS-B
07:18AM 47.3601 -122.2050 22° Northeast 234 269 2,700 -900 Level FlightAware ADS-B
07:18AM 47.3646 -122.2030 17° North 236 272 2,600 -1,500 Descending FlightAware ADS-B
07:18AM 47.3686 -122.2020 10° North 236 272 2,500 -1,500 Descending FlightAware ADS-B
07:18AM 47.3723 -122.2020 360° North 235 270 2,400 -900 Descending FlightAware ADS-B
07:18AM 47.3758 -122.2020 360° North 234 269 2,400 -480 Level FlightAware ADS-B
07:19AM 47.3881 -122.2030 357° North 227 261 2,300 -600 Descending FlightAware ADS-B
07:19AM 47.3992 -122.2040 357° North 220 253 2,200 -600 Descending FlightAware ADS-B
07:19AM 47.4091 -122.2040 360° North 215 247 2,100 -900 Descending FlightAware ADS-B
07:19AM 47.4125 -122.2050 349° North 213 245 2,000 -900 Descending FlightAware ADS-B
07:19AM 47.4153 -122.2070 334° Northwest 209 241 2,000  Level FlightAware ADS-B
07:19AM 47.4179 -122.2080 345° North 205 236 2,000  Level FlightAware ADS-B
07:19AM 47.4210 -122.2110 327° Northwest 199 229 2,000  Level FlightAware ADS-B
07:19AM 47.4270 -122.2160 331° Northwest 183 211 2,000  Level FlightAware ADS-B
07:19AM 47.4331 -122.2210 331° Northwest 170 196 2,000 -360 Level FlightAware ADS-B
07:20AM 47.4398 -122.2270 329° Northwest 168 193 1,900 -720 Descending FlightAware ADS-B
07:20AM 47.4496 -122.2350 331° Northwest 155 178 1,700 -720 Descending FlightAware ADS-B
07:20AM 47.4556 -122.2400 331° Northwest 145 167 1,600 -900 Descending FlightAware ADS-B
07:20AM 47.4619 -122.2450 332° Northwest 145 167 1,400 -900 Descending FlightAware ADS-B
07:20AM 47.4672 -122.2500 327° Northwest 143 165 1,300 -720 Descending FlightAware ADS-B
07:20AM 47.4718 -122.2530 336° Northwest 143 165 1,200 -900 Descending FlightAware ADS-B
07:21AM 47.4793 -122.2600 328° Northwest 148 170 1,000 -960 Descending FlightAware ADS-B
07:21AM 47.4990 -122.2760 331° Northwest 159 183 500 -540 Descending FlightAware
07:22AM 47.5140 -122.2900 328° Northwest 159 183 500 30,480 Level FlightAware
07:22AM 47.5322 -122.3042 328° Northwest 148 170 30,000 58,980 Climbing Seattle Center
07:24AM 47.5300 -122.3020 146° Southeast  Level Estimated